sensor_id;sensor_type;location;lat;lon;timestamp;P1;durP1;ratioP1;P2;durP2;ratioP2
23394;SDS011;11870;53.084;18.206;2023-09-08T00:00:08;16.75;;;13.63;;
23394;SDS011;11870;53.084;18.206;2023-09-08T00:02:54;15.82;;;12.95;;
23394;SDS011;11870;53.084;18.206;2023-09-08T00:05:21;17.20;;;13.95;;
23394;SDS011;11870;53.084;18.206;2023-09-08T00:07:47;16.40;;;13.63;;
23394;SDS011;11870;53.084;18.206;2023-09-08T00:10:13;18.15;;;14.23;;
23394;SDS011;11870;53.084;18.206;2023-09-08T00:12:39;17.50;;;13.85;;
23394;SDS011;11870;53.084;18.206;2023-09-08T00:15:06;17.25;;;13.32;;
23394;SDS011;11870;53.084;18.206;2023-09-08T00:17:32;17.45;;;13.30;;
23394;SDS011;11870;53.084;18.206;2023-09-08T00:19:59;19.55;;;14.13;;
23394;SDS011;11870;53.084;18.206;2023-09-08T00:22:25;15.65;;;13.90;;
23394;SDS011;11870;53.084;18.206;2023-09-08T00:24:51;21.17;;;15.73;;
23394;SDS011;11870;53.084;18.206;2023-09-08T00:27:17;23.13;;;15.52;;
23394;SDS011;11870;53.084;18.206;2023-09-08T00:29:43;21.55;;;15.15;;
23394;SDS011;11870;53.084;18.206;2023-09-08T00:32:09;21.63;;;14.90;;
23394;SDS011;11870;53.084;18.206;2023-09-08T00:34:36;20.13;;;14.50;;
23394;SDS011;11870;53.084;18.206;2023-09-08T00:37:02;18.25;;;14.15;;
23394;SDS011;11870;53.084;18.206;2023-09-08T00:39:34;20.88;;;15.18;;
23394;SDS011;11870;53.084;18.206;2023-09-08T00:42:01;16.90;;;12.95;;
23394;SDS011;11870;53.084;18.206;2023-09-08T00:44:27;18.58;;;14.00;;
23394;SDS011;11870;53.084;18.206;2023-09-08T00:46:53;18.75;;;14.80;;
23394;SDS011;11870;53.084;18.206;2023-09-08T00:49:19;18.52;;;14.45;;
23394;SDS011;11870;53.084;18.206;2023-09-08T00:51:46;18.80;;;14.75;;
23394;SDS011;11870;53.084;18.206;2023-09-08T00:54:15;20.42;;;15.50;;
23394;SDS011;11870;53.084;18.206;2023-09-08T00:56:42;16.67;;;14.02;;
23394;SDS011;11870;53.084;18.206;2023-09-08T00:59:11;16.92;;;13.38;;
23394;SDS011;11870;53.084;18.206;2023-09-08T01:01:37;19.63;;;14.73;;
23394;SDS011;11870;53.084;18.206;2023-09-08T01:04:03;20.08;;;14.20;;
23394;SDS011;11870;53.084;18.206;2023-09-08T01:06:30;22.05;;;16.30;;
23394;SDS011;11870;53.084;18.206;2023-09-08T01:08:58;21.90;;;16.75;;
23394;SDS011;11870;53.084;18.206;2023-09-08T01:11:25;22.58;;;17.00;;
23394;SDS011;11870;53.084;18.206;2023-09-08T01:13:51;27.38;;;18.02;;
23394;SDS011;11870;53.084;18.206;2023-09-08T01:16:17;21.40;;;16.13;;
23394;SDS011;11870;53.084;18.206;2023-09-08T01:18:44;26.27;;;17.40;;
23394;SDS011;11870;53.084;18.206;2023-09-08T01:26:44;22.35;;;15.43;;
23394;SDS011;11870;53.084;18.206;2023-09-08T01:29:11;26.80;;;17.45;;
23394;SDS011;11870;53.084;18.206;2023-09-08T01:31:38;27.58;;;17.88;;
23394;SDS011;11870;53.084;18.206;2023-09-08T01:34:05;24.83;;;16.58;;
23394;SDS011;11870;53.084;18.206;2023-09-08T01:36:35;27.58;;;18.20;;
23394;SDS011;11870;53.084;18.206;2023-09-08T01:39:02;24.13;;;17.50;;
23394;SDS011;11870;53.084;18.206;2023-09-08T01:41:28;23.85;;;17.42;;
23394;SDS011;11870;53.084;18.206;2023-09-08T01:43:55;22.05;;;17.15;;
23394;SDS011;11870;53.084;18.206;2023-09-08T01:46:23;25.75;;;17.35;;
23394;SDS011;11870;53.084;18.206;2023-09-08T01:48:49;21.30;;;15.57;;
23394;SDS011;11870;53.084;18.206;2023-09-08T01:51:15;26.13;;;15.77;;
23394;SDS011;11870;53.084;18.206;2023-09-08T01:53:41;21.85;;;15.93;;
23394;SDS011;11870;53.084;18.206;2023-09-08T01:56:08;24.52;;;16.23;;
23394;SDS011;11870;53.084;18.206;2023-09-08T01:58:34;23.70;;;16.70;;
23394;SDS011;11870;53.084;18.206;2023-09-08T02:00:59;17.75;;;14.48;;
23394;SDS011;11870;53.084;18.206;2023-09-08T02:03:31;20.50;;;14.93;;
23394;SDS011;11870;53.084;18.206;2023-09-08T02:05:57;24.52;;;15.70;;
23394;SDS011;11870;53.084;18.206;2023-09-08T02:08:24;23.27;;;16.35;;
23394;SDS011;11870;53.084;18.206;2023-09-08T02:10:50;21.92;;;16.60;;
23394;SDS011;11870;53.084;18.206;2023-09-08T02:13:17;22.52;;;15.32;;
23394;SDS011;11870;53.084;18.206;2023-09-08T02:15:43;26.90;;;17.05;;
23394;SDS011;11870;53.084;18.206;2023-09-08T02:18:09;25.38;;;16.05;;
23394;SDS011;11870;53.084;18.206;2023-09-08T02:20:35;23.30;;;16.45;;
23394;SDS011;11870;53.084;18.206;2023-09-08T02:23:05;23.27;;;15.80;;
23394;SDS011;11870;53.084;18.206;2023-09-08T02:25:32;22.55;;;16.75;;
23394;SDS011;11870;53.084;18.206;2023-09-08T02:27:58;25.10;;;17.25;;
23394;SDS011;11870;53.084;18.206;2023-09-08T02:30:25;19.38;;;14.38;;
23394;SDS011;11870;53.084;18.206;2023-09-08T02:32:51;27.13;;;16.67;;
23394;SDS011;11870;53.084;18.206;2023-09-08T02:35:18;22.67;;;15.65;;
23394;SDS011;11870;53.084;18.206;2023-09-08T02:37:44;26.75;;;18.10;;
23394;SDS011;11870;53.084;18.206;2023-09-08T02:40:10;21.48;;;15.90;;
23394;SDS011;11870;53.084;18.206;2023-09-08T02:42:36;26.85;;;17.65;;
23394;SDS011;11870;53.084;18.206;2023-09-08T02:45:02;24.90;;;15.32;;
23394;SDS011;11870;53.084;18.206;2023-09-08T02:47:29;24.70;;;16.77;;
23394;SDS011;11870;53.084;18.206;2023-09-08T02:49:55;31.70;;;17.08;;
23394;SDS011;11870;53.084;18.206;2023-09-08T02:52:22;23.15;;;16.73;;
23394;SDS011;11870;53.084;18.206;2023-09-08T02:54:48;19.75;;;14.73;;
23394;SDS011;11870;53.084;18.206;2023-09-08T02:57:15;21.90;;;16.58;;
23394;SDS011;11870;53.084;18.206;2023-09-08T02:59:41;21.75;;;15.52;;
23394;SDS011;11870;53.084;18.206;2023-09-08T03:02:08;20.75;;;15.20;;
23394;SDS011;11870;53.084;18.206;2023-09-08T03:04:34;21.33;;;15.52;;
23394;SDS011;11870;53.084;18.206;2023-09-08T03:07:00;24.70;;;15.90;;
23394;SDS011;11870;53.084;18.206;2023-09-08T03:09:27;21.55;;;16.73;;
23394;SDS011;11870;53.084;18.206;2023-09-08T03:11:53;22.02;;;16.17;;
23394;SDS011;11870;53.084;18.206;2023-09-08T03:14:19;21.75;;;15.52;;
23394;SDS011;11870;53.084;18.206;2023-09-08T03:16:46;24.95;;;16.90;;
23394;SDS011;11870;53.084;18.206;2023-09-08T03:19:12;22.77;;;17.02;;
23394;SDS011;11870;53.084;18.206;2023-09-08T03:21:38;26.73;;;17.38;;
23394;SDS011;11870;53.084;18.206;2023-09-08T03:24:05;21.88;;;16.05;;
23394;SDS011;11870;53.084;18.206;2023-09-08T03:26:31;22.20;;;16.77;;
23394;SDS011;11870;53.084;18.206;2023-09-08T03:28:57;23.20;;;16.15;;
23394;SDS011;11870;53.084;18.206;2023-09-08T03:31:24;20.27;;;15.38;;
23394;SDS011;11870;53.084;18.206;2023-09-08T03:33:50;21.05;;;16.27;;
23394;SDS011;11870;53.084;18.206;2023-09-08T03:36:17;24.10;;;17.13;;
23394;SDS011;11870;53.084;18.206;2023-09-08T03:38:43;23.63;;;16.60;;
23394;SDS011;11870;53.084;18.206;2023-09-08T03:41:09;23.75;;;16.50;;
23394;SDS011;11870;53.084;18.206;2023-09-08T03:43:36;21.48;;;16.73;;
23394;SDS011;11870;53.084;18.206;2023-09-08T03:46:02;27.50;;;18.90;;
23394;SDS011;11870;53.084;18.206;2023-09-08T03:48:28;24.67;;;16.88;;
23394;SDS011;11870;53.084;18.206;2023-09-08T03:50:55;22.60;;;16.92;;
23394;SDS011;11870;53.084;18.206;2023-09-08T03:53:22;24.30;;;18.13;;
23394;SDS011;11870;53.084;18.206;2023-09-08T03:55:49;26.23;;;17.98;;
23394;SDS011;11870;53.084;18.206;2023-09-08T03:58:18;24.05;;;17.92;;
23394;SDS011;11870;53.084;18.206;2023-09-08T04:00:45;23.50;;;16.70;;
23394;SDS011;11870;53.084;18.206;2023-09-08T04:03:11;22.05;;;16.02;;
23394;SDS011;11870;53.084;18.206;2023-09-08T04:05:38;22.35;;;16.98;;
23394;SDS011;11870;53.084;18.206;2023-09-08T04:08:05;33.00;;;18.92;;
23394;SDS011;11870;53.084;18.206;2023-09-08T04:10:31;24.60;;;17.80;;
23394;SDS011;11870;53.084;18.206;2023-09-08T04:12:58;27.30;;;17.83;;
23394;SDS011;11870;53.084;18.206;2023-09-08T04:15:25;25.75;;;18.60;;
23394;SDS011;11870;53.084;18.206;2023-09-08T04:17:51;24.13;;;16.48;;
23394;SDS011;11870;53.084;18.206;2023-09-08T04:20:17;25.77;;;16.98;;
23394;SDS011;11870;53.084;18.206;2023-09-08T04:22:44;29.30;;;17.40;;
23394;SDS011;11870;53.084;18.206;2023-09-08T04:25:10;24.60;;;18.60;;
23394;SDS011;11870;53.084;18.206;2023-09-08T04:27:37;27.92;;;17.20;;
23394;SDS011;11870;53.084;18.206;2023-09-08T04:30:04;23.75;;;18.35;;
23394;SDS011;11870;53.084;18.206;2023-09-08T04:32:31;25.83;;;18.10;;
23394;SDS011;11870;53.084;18.206;2023-09-08T04:34:58;28.13;;;18.92;;
23394;SDS011;11870;53.084;18.206;2023-09-08T04:37:24;26.60;;;18.48;;
23394;SDS011;11870;53.084;18.206;2023-09-08T04:39:51;31.42;;;20.23;;
23394;SDS011;11870;53.084;18.206;2023-09-08T04:42:17;31.80;;;19.25;;
23394;SDS011;11870;53.084;18.206;2023-09-08T04:44:43;28.63;;;20.10;;
23394;SDS011;11870;53.084;18.206;2023-09-08T04:47:09;31.98;;;21.88;;
23394;SDS011;11870;53.084;18.206;2023-09-08T04:49:36;36.05;;;23.40;;
23394;SDS011;11870;53.084;18.206;2023-09-08T04:52:02;39.17;;;27.75;;
23394;SDS011;11870;53.084;18.206;2023-09-08T04:54:29;40.42;;;29.48;;
23394;SDS011;11870;53.084;18.206;2023-09-08T04:56:57;42.08;;;31.00;;
23394;SDS011;11870;53.084;18.206;2023-09-08T04:59:24;49.88;;;30.73;;
23394;SDS011;11870;53.084;18.206;2023-09-08T05:01:50;47.95;;;31.98;;
23394;SDS011;11870;53.084;18.206;2023-09-08T05:04:17;46.75;;;33.63;;
23394;SDS011;11870;53.084;18.206;2023-09-08T05:06:43;48.80;;;34.97;;
23394;SDS011;11870;53.084;18.206;2023-09-08T05:09:10;50.70;;;34.17;;
23394;SDS011;11870;53.084;18.206;2023-09-08T05:11:36;45.00;;;34.35;;
23394;SDS011;11870;53.084;18.206;2023-09-08T05:14:03;40.78;;;27.77;;
23394;SDS011;11870;53.084;18.206;2023-09-08T05:16:30;26.35;;;19.98;;
23394;SDS011;11870;53.084;18.206;2023-09-08T05:19:12;21.30;;;14.48;;
23394;SDS011;11870;53.084;18.206;2023-09-08T05:21:38;12.95;;;9.85;;
23394;SDS011;11870;53.084;18.206;2023-09-08T05:24:05;15.23;;;9.75;;
23394;SDS011;11870;53.084;18.206;2023-09-08T05:26:36;16.05;;;9.38;;
23394;SDS011;11870;53.084;18.206;2023-09-08T05:29:03;19.90;;;8.93;;
23394;SDS011;11870;53.084;18.206;2023-09-08T05:31:29;14.70;;;10.38;;
23394;SDS011;11870;53.084;18.206;2023-09-08T05:33:56;36.55;;;10.60;;
23394;SDS011;11870;53.084;18.206;2023-09-08T05:36:22;15.90;;;9.40;;
23394;SDS011;11870;53.084;18.206;2023-09-08T05:38:49;15.90;;;9.20;;
23394;SDS011;11870;53.084;18.206;2023-09-08T05:41:15;16.70;;;9.10;;
23394;SDS011;11870;53.084;18.206;2023-09-08T05:43:41;13.90;;;9.15;;
23394;SDS011;11870;53.084;18.206;2023-09-08T05:46:07;19.17;;;10.13;;
23394;SDS011;11870;53.084;18.206;2023-09-08T05:48:33;14.20;;;9.57;;
23394;SDS011;11870;53.084;18.206;2023-09-08T05:50:59;17.35;;;9.48;;
23394;SDS011;11870;53.084;18.206;2023-09-08T05:53:27;16.83;;;8.57;;
23394;SDS011;11870;53.084;18.206;2023-09-08T05:55:53;20.45;;;9.43;;
23394;SDS011;11870;53.084;18.206;2023-09-08T05:58:19;17.05;;;8.80;;
23394;SDS011;11870;53.084;18.206;2023-09-08T06:00:45;10.45;;;8.13;;
23394;SDS011;11870;53.084;18.206;2023-09-08T06:03:11;11.90;;;8.90;;
23394;SDS011;11870;53.084;18.206;2023-09-08T06:05:37;14.05;;;9.60;;
23394;SDS011;11870;53.084;18.206;2023-09-08T06:08:03;14.40;;;9.52;;
23394;SDS011;11870;53.084;18.206;2023-09-08T06:10:29;13.85;;;8.82;;
23394;SDS011;11870;53.084;18.206;2023-09-08T06:12:56;11.55;;;8.82;;
23394;SDS011;11870;53.084;18.206;2023-09-08T06:15:32;11.10;;;9.30;;
23394;SDS011;11870;53.084;18.206;2023-09-08T06:17:58;16.13;;;10.60;;
23394;SDS011;11870;53.084;18.206;2023-09-08T06:20:24;13.55;;;9.07;;
23394;SDS011;11870;53.084;18.206;2023-09-08T06:22:50;13.18;;;9.73;;
23394;SDS011;11870;53.084;18.206;2023-09-08T06:25:16;15.43;;;9.73;;
23394;SDS011;11870;53.084;18.206;2023-09-08T06:27:42;14.15;;;9.45;;
23394;SDS011;11870;53.084;18.206;2023-09-08T06:30:08;12.93;;;9.10;;
23394;SDS011;11870;53.084;18.206;2023-09-08T06:32:34;14.00;;;8.75;;
23394;SDS011;11870;53.084;18.206;2023-09-08T06:35:00;13.65;;;8.82;;
23394;SDS011;11870;53.084;18.206;2023-09-08T06:37:26;12.57;;;9.30;;
23394;SDS011;11870;53.084;18.206;2023-09-08T06:39:54;18.30;;;9.73;;
23394;SDS011;11870;53.084;18.206;2023-09-08T06:42:20;15.48;;;8.65;;
23394;SDS011;11870;53.084;18.206;2023-09-08T06:44:46;13.02;;;9.50;;
23394;SDS011;11870;53.084;18.206;2023-09-08T06:47:12;11.82;;;9.93;;
23394;SDS011;11870;53.084;18.206;2023-09-08T06:49:37;11.57;;;8.60;;
23394;SDS011;11870;53.084;18.206;2023-09-08T06:52:04;14.85;;;9.98;;
23394;SDS011;11870;53.084;18.206;2023-09-08T06:54:30;18.60;;;10.30;;
23394;SDS011;11870;53.084;18.206;2023-09-08T06:56:56;20.08;;;10.23;;
23394;SDS011;11870;53.084;18.206;2023-09-08T06:59:22;19.83;;;9.55;;
23394;SDS011;11870;53.084;18.206;2023-09-08T07:01:48;16.85;;;9.43;;
23394;SDS011;11870;53.084;18.206;2023-09-08T07:04:13;17.83;;;9.90;;
23394;SDS011;11870;53.084;18.206;2023-09-08T07:06:39;14.68;;;10.15;;
23394;SDS011;11870;53.084;18.206;2023-09-08T07:09:08;19.10;;;9.82;;
23394;SDS011;11870;53.084;18.206;2023-09-08T07:11:35;14.65;;;10.18;;
23394;SDS011;11870;53.084;18.206;2023-09-08T07:14:00;13.63;;;8.20;;
23394;SDS011;11870;53.084;18.206;2023-09-08T07:16:27;17.52;;;10.38;;
23394;SDS011;11870;53.084;18.206;2023-09-08T07:18:53;13.43;;;10.07;;
23394;SDS011;11870;53.084;18.206;2023-09-08T07:21:19;19.33;;;9.27;;
23394;SDS011;11870;53.084;18.206;2023-09-08T07:23:45;12.40;;;7.57;;
23394;SDS011;11870;53.084;18.206;2023-09-08T07:26:11;14.98;;;9.40;;
23394;SDS011;11870;53.084;18.206;2023-09-08T07:28:37;18.30;;;10.00;;
23394;SDS011;11870;53.084;18.206;2023-09-08T07:31:04;13.20;;;7.93;;
23394;SDS011;11870;53.084;18.206;2023-09-08T07:33:30;23.45;;;9.43;;
23394;SDS011;11870;53.084;18.206;2023-09-08T07:35:56;13.15;;;8.35;;
23394;SDS011;11870;53.084;18.206;2023-09-08T07:38:22;15.30;;;8.30;;
23394;SDS011;11870;53.084;18.206;2023-09-08T07:40:48;15.20;;;8.57;;
23394;SDS011;11870;53.084;18.206;2023-09-08T07:43:14;13.63;;;9.73;;
23394;SDS011;11870;53.084;18.206;2023-09-08T07:45:40;11.43;;;8.63;;
23394;SDS011;11870;53.084;18.206;2023-09-08T07:48:06;9.80;;;7.60;;
23394;SDS011;11870;53.084;18.206;2023-09-08T07:50:32;12.30;;;9.05;;
23394;SDS011;11870;53.084;18.206;2023-09-08T07:52:58;12.88;;;8.55;;
23394;SDS011;11870;53.084;18.206;2023-09-08T07:55:24;14.10;;;8.50;;
23394;SDS011;11870;53.084;18.206;2023-09-08T07:57:54;10.38;;;8.23;;
23394;SDS011;11870;53.084;18.206;2023-09-08T08:00:20;16.95;;;9.23;;
23394;SDS011;11870;53.084;18.206;2023-09-08T08:02:47;16.00;;;7.88;;
23394;SDS011;11870;53.084;18.206;2023-09-08T08:05:19;8.23;;;7.30;;
23394;SDS011;11870;53.084;18.206;2023-09-08T08:07:44;11.77;;;8.18;;
23394;SDS011;11870;53.084;18.206;2023-09-08T08:10:11;13.35;;;8.55;;
23394;SDS011;11870;53.084;18.206;2023-09-08T08:12:38;16.63;;;8.25;;
23394;SDS011;11870;53.084;18.206;2023-09-08T08:15:05;9.02;;;7.55;;
23394;SDS011;11870;53.084;18.206;2023-09-08T08:17:31;12.13;;;7.53;;
23394;SDS011;11870;53.084;18.206;2023-09-08T08:19:57;14.77;;;8.80;;
23394;SDS011;11870;53.084;18.206;2023-09-08T08:22:24;12.02;;;7.43;;
23394;SDS011;11870;53.084;18.206;2023-09-08T08:24:50;14.43;;;8.50;;
23394;SDS011;11870;53.084;18.206;2023-09-08T08:27:16;15.32;;;7.85;;
23394;SDS011;11870;53.084;18.206;2023-09-08T08:29:42;10.05;;;8.27;;
23394;SDS011;11870;53.084;18.206;2023-09-08T08:32:08;9.85;;;6.63;;
23394;SDS011;11870;53.084;18.206;2023-09-08T08:34:34;9.95;;;7.85;;
23394;SDS011;11870;53.084;18.206;2023-09-08T08:37:00;12.13;;;7.95;;
23394;SDS011;11870;53.084;18.206;2023-09-08T08:39:27;13.38;;;7.32;;
23394;SDS011;11870;53.084;18.206;2023-09-08T08:41:53;12.02;;;7.43;;
23394;SDS011;11870;53.084;18.206;2023-09-08T08:44:19;11.52;;;7.22;;
23394;SDS011;11870;53.084;18.206;2023-09-08T08:46:46;12.27;;;8.13;;
23394;SDS011;11870;53.084;18.206;2023-09-08T08:49:14;10.55;;;8.07;;
23394;SDS011;11870;53.084;18.206;2023-09-08T08:51:42;11.80;;;8.75;;
23394;SDS011;11870;53.084;18.206;2023-09-08T08:54:11;10.05;;;8.65;;
23394;SDS011;11870;53.084;18.206;2023-09-08T08:56:38;12.27;;;8.02;;
23394;SDS011;11870;53.084;18.206;2023-09-08T08:59:04;17.02;;;8.88;;
23394;SDS011;11870;53.084;18.206;2023-09-08T09:01:30;11.50;;;8.50;;
23394;SDS011;11870;53.084;18.206;2023-09-08T09:03:58;14.48;;;9.43;;
23394;SDS011;11870;53.084;18.206;2023-09-08T09:06:24;11.82;;;8.70;;
23394;SDS011;11870;53.084;18.206;2023-09-08T09:08:50;13.80;;;8.25;;
23394;SDS011;11870;53.084;18.206;2023-09-08T09:11:15;11.23;;;7.70;;
23394;SDS011;11870;53.084;18.206;2023-09-08T09:13:41;9.30;;;8.07;;
23394;SDS011;11870;53.084;18.206;2023-09-08T09:16:08;12.50;;;7.53;;
23394;SDS011;11870;53.084;18.206;2023-09-08T09:21:50;9.73;;;7.68;;
23394;SDS011;11870;53.084;18.206;2023-09-08T09:24:33;8.48;;;7.18;;
23394;SDS011;11870;53.084;18.206;2023-09-08T09:27:02;7.88;;;6.43;;
23394;SDS011;11870;53.084;18.206;2023-09-08T09:29:31;9.40;;;6.70;;
23394;SDS011;11870;53.084;18.206;2023-09-08T09:31:58;8.02;;;6.50;;
23394;SDS011;11870;53.084;18.206;2023-09-08T09:34:28;6.45;;;5.80;;
23394;SDS011;11870;53.084;18.206;2023-09-08T09:36:55;9.35;;;5.88;;
23394;SDS011;11870;53.084;18.206;2023-09-08T09:39:22;6.78;;;6.05;;
23394;SDS011;11870;53.084;18.206;2023-09-08T09:41:49;6.95;;;6.13;;
23394;SDS011;11870;53.084;18.206;2023-09-08T09:44:22;6.07;;;5.57;;
23394;SDS011;11870;53.084;18.206;2023-09-08T09:46:51;5.60;;;5.10;;
23394;SDS011;11870;53.084;18.206;2023-09-08T09:49:18;6.38;;;5.78;;
23394;SDS011;11870;53.084;18.206;2023-09-08T09:51:45;8.27;;;5.50;;
23394;SDS011;11870;53.084;18.206;2023-09-08T09:54:16;7.13;;;5.90;;
23394;SDS011;11870;53.084;18.206;2023-09-08T09:56:43;6.88;;;5.75;;
23394;SDS011;11870;53.084;18.206;2023-09-08T09:59:10;8.43;;;5.43;;
23394;SDS011;11870;53.084;18.206;2023-09-08T10:01:40;8.57;;;6.00;;
23394;SDS011;11870;53.084;18.206;2023-09-08T10:04:08;10.45;;;6.10;;
23394;SDS011;11870;53.084;18.206;2023-09-08T10:06:34;7.20;;;6.57;;
23394;SDS011;11870;53.084;18.206;2023-09-08T10:09:03;5.68;;;5.15;;
23394;SDS011;11870;53.084;18.206;2023-09-08T10:11:34;6.90;;;6.00;;
23394;SDS011;11870;53.084;18.206;2023-09-08T10:14:05;6.15;;;5.53;;
23394;SDS011;11870;53.084;18.206;2023-09-08T10:16:36;8.25;;;5.38;;
23394;SDS011;11870;53.084;18.206;2023-09-08T10:19:09;7.85;;;5.75;;
23394;SDS011;11870;53.084;18.206;2023-09-08T10:21:36;6.00;;;5.40;;
23394;SDS011;11870;53.084;18.206;2023-09-08T10:24:26;9.38;;;6.75;;
23394;SDS011;11870;53.084;18.206;2023-09-08T10:27:09;7.20;;;5.38;;
23394;SDS011;11870;53.084;18.206;2023-09-08T10:29:36;9.55;;;6.00;;
23394;SDS011;11870;53.084;18.206;2023-09-08T10:32:03;5.70;;;5.00;;
23394;SDS011;11870;53.084;18.206;2023-09-08T10:34:31;5.97;;;4.65;;
23394;SDS011;11870;53.084;18.206;2023-09-08T10:36:58;6.28;;;5.15;;
23394;SDS011;11870;53.084;18.206;2023-09-08T10:44:44;5.32;;;4.82;;
23394;SDS011;11870;53.084;18.206;2023-09-08T10:47:22;7.85;;;4.95;;
23394;SDS011;11870;53.084;18.206;2023-09-08T10:49:50;5.93;;;4.50;;
23394;SDS011;11870;53.084;18.206;2023-09-08T10:52:21;5.88;;;4.55;;
23394;SDS011;11870;53.084;18.206;2023-09-08T10:54:51;7.68;;;4.95;;
23394;SDS011;11870;53.084;18.206;2023-09-08T10:57:20;5.07;;;4.57;;
23394;SDS011;11870;53.084;18.206;2023-09-08T10:59:51;9.57;;;5.30;;
23394;SDS011;11870;53.084;18.206;2023-09-08T11:05:12;5.70;;;5.10;;
23394;SDS011;11870;53.084;18.206;2023-09-08T11:07:39;7.43;;;5.40;;
23394;SDS011;11870;53.084;18.206;2023-09-08T11:10:07;6.32;;;5.20;;
23394;SDS011;11870;53.084;18.206;2023-09-08T11:12:34;6.50;;;4.95;;
23394;SDS011;11870;53.084;18.206;2023-09-08T11:15:04;5.97;;;4.78;;
23394;SDS011;11870;53.084;18.206;2023-09-08T11:17:33;5.40;;;4.88;;
23394;SDS011;11870;53.084;18.206;2023-09-08T11:20:00;7.22;;;4.85;;
23394;SDS011;11870;53.084;18.206;2023-09-08T11:22:33;5.63;;;5.10;;
23394;SDS011;11870;53.084;18.206;2023-09-08T11:25:00;7.45;;;4.90;;
23394;SDS011;11870;53.084;18.206;2023-09-08T11:27:30;9.43;;;5.10;;
23394;SDS011;11870;53.084;18.206;2023-09-08T11:29:56;5.45;;;4.57;;
23394;SDS011;11870;53.084;18.206;2023-09-08T11:32:23;5.78;;;4.90;;
23394;SDS011;11870;53.084;18.206;2023-09-08T11:34:49;5.15;;;4.65;;
23394;SDS011;11870;53.084;18.206;2023-09-08T11:37:17;6.97;;;4.88;;
23394;SDS011;11870;53.084;18.206;2023-09-08T11:39:46;7.30;;;5.03;;
23394;SDS011;11870;53.084;18.206;2023-09-08T11:42:16;6.97;;;4.60;;
23394;SDS011;11870;53.084;18.206;2023-09-08T11:44:49;7.72;;;5.00;;
23394;SDS011;11870;53.084;18.206;2023-09-08T11:47:15;10.18;;;5.10;;
23394;SDS011;11870;53.084;18.206;2023-09-08T11:49:42;6.40;;;5.15;;
23394;SDS011;11870;53.084;18.206;2023-09-08T11:52:09;6.65;;;4.93;;
23394;SDS011;11870;53.084;18.206;2023-09-08T11:54:36;7.35;;;5.18;;
23394;SDS011;11870;53.084;18.206;2023-09-08T11:57:04;6.15;;;4.88;;
23394;SDS011;11870;53.084;18.206;2023-09-08T11:59:33;6.32;;;4.53;;
23394;SDS011;11870;53.084;18.206;2023-09-08T12:02:00;6.68;;;4.43;;
23394;SDS011;11870;53.084;18.206;2023-09-08T12:04:27;6.43;;;4.70;;
23394;SDS011;11870;53.084;18.206;2023-09-08T12:06:53;6.90;;;5.07;;
23394;SDS011;11870;53.084;18.206;2023-09-08T12:09:23;5.63;;;4.93;;
23394;SDS011;11870;53.084;18.206;2023-09-08T12:11:49;7.88;;;4.72;;
23394;SDS011;11870;53.084;18.206;2023-09-08T12:14:16;6.20;;;5.18;;
23394;SDS011;11870;53.084;18.206;2023-09-08T12:16:42;9.75;;;5.05;;
23394;SDS011;11870;53.084;18.206;2023-09-08T12:19:10;6.38;;;5.10;;
23394;SDS011;11870;53.084;18.206;2023-09-08T12:21:59;5.22;;;4.50;;
23394;SDS011;11870;53.084;18.206;2023-09-08T12:27:25;5.43;;;4.70;;
23394;SDS011;11870;53.084;18.206;2023-09-08T12:32:18;6.18;;;4.60;;
23394;SDS011;11870;53.084;18.206;2023-09-08T12:34:45;6.60;;;4.45;;
23394;SDS011;11870;53.084;18.206;2023-09-08T12:37:11;5.68;;;4.60;;
23394;SDS011;11870;53.084;18.206;2023-09-08T12:39:38;5.63;;;4.75;;
23394;SDS011;11870;53.084;18.206;2023-09-08T12:42:04;6.55;;;4.60;;
23394;SDS011;11870;53.084;18.206;2023-09-08T12:44:30;6.72;;;4.60;;
23394;SDS011;11870;53.084;18.206;2023-09-08T12:46:57;7.35;;;4.80;;
23394;SDS011;11870;53.084;18.206;2023-09-08T12:49:23;6.07;;;4.80;;
23394;SDS011;11870;53.084;18.206;2023-09-08T12:51:49;8.57;;;5.10;;
23394;SDS011;11870;53.084;18.206;2023-09-08T12:54:16;6.40;;;5.18;;
23394;SDS011;11870;53.084;18.206;2023-09-08T12:56:42;7.72;;;4.95;;
23394;SDS011;11870;53.084;18.206;2023-09-08T12:59:08;6.18;;;4.65;;
23394;SDS011;11870;53.084;18.206;2023-09-08T13:01:34;8.32;;;4.80;;
23394;SDS011;11870;53.084;18.206;2023-09-08T13:04:00;5.78;;;4.80;;
23394;SDS011;11870;53.084;18.206;2023-09-08T13:06:27;7.68;;;5.38;;
23394;SDS011;11870;53.084;18.206;2023-09-08T13:08:53;7.30;;;4.90;;
23394;SDS011;11870;53.084;18.206;2023-09-08T13:11:19;6.25;;;4.95;;
23394;SDS011;11870;53.084;18.206;2023-09-08T13:13:46;7.75;;;4.72;;
23394;SDS011;11870;53.084;18.206;2023-09-08T13:16:12;6.85;;;5.13;;
23394;SDS011;11870;53.084;18.206;2023-09-08T13:18:38;9.27;;;4.93;;
23394;SDS011;11870;53.084;18.206;2023-09-08T13:21:06;6.82;;;5.45;;
23394;SDS011;11870;53.084;18.206;2023-09-08T13:23:33;7.07;;;4.88;;
23394;SDS011;11870;53.084;18.206;2023-09-08T13:25:59;5.22;;;4.60;;
23394;SDS011;11870;53.084;18.206;2023-09-08T13:28:26;5.85;;;5.25;;
23394;SDS011;11870;53.084;18.206;2023-09-08T13:30:52;7.68;;;4.60;;
23394;SDS011;11870;53.084;18.206;2023-09-08T13:33:18;8.18;;;5.20;;
23394;SDS011;11870;53.084;18.206;2023-09-08T13:35:45;5.80;;;5.10;;
23394;SDS011;11870;53.084;18.206;2023-09-08T13:38:11;6.18;;;4.95;;
23394;SDS011;11870;53.084;18.206;2023-09-08T13:40:37;7.60;;;4.85;;
23394;SDS011;11870;53.084;18.206;2023-09-08T13:43:04;6.93;;;5.10;;
23394;SDS011;11870;53.084;18.206;2023-09-08T13:45:30;6.20;;;5.05;;
23394;SDS011;11870;53.084;18.206;2023-09-08T13:47:57;7.38;;;5.30;;
23394;SDS011;11870;53.084;18.206;2023-09-08T13:50:23;5.90;;;4.80;;
23394;SDS011;11870;53.084;18.206;2023-09-08T13:52:49;5.30;;;4.80;;
23394;SDS011;11870;53.084;18.206;2023-09-08T13:55:15;8.52;;;5.30;;
23394;SDS011;11870;53.084;18.206;2023-09-08T13:57:41;7.88;;;5.20;;
23394;SDS011;11870;53.084;18.206;2023-09-08T14:00:08;5.65;;;5.03;;
23394;SDS011;11870;53.084;18.206;2023-09-08T14:02:34;7.35;;;5.38;;
23394;SDS011;11870;53.084;18.206;2023-09-08T14:05:01;6.82;;;4.88;;
23394;SDS011;11870;53.084;18.206;2023-09-08T14:07:28;13.98;;;5.35;;
23394;SDS011;11870;53.084;18.206;2023-09-08T14:09:54;9.52;;;5.15;;
23394;SDS011;11870;53.084;18.206;2023-09-08T14:12:21;6.05;;;5.10;;
23394;SDS011;11870;53.084;18.206;2023-09-08T14:14:47;5.93;;;5.00;;
23394;SDS011;11870;53.084;18.206;2023-09-08T14:17:13;6.05;;;4.68;;
23394;SDS011;11870;53.084;18.206;2023-09-08T14:19:39;12.02;;;5.28;;
23394;SDS011;11870;53.084;18.206;2023-09-08T14:22:05;8.13;;;5.50;;
23394;SDS011;11870;53.084;18.206;2023-09-08T14:24:31;10.63;;;5.20;;
23394;SDS011;11870;53.084;18.206;2023-09-08T14:26:58;7.65;;;5.25;;
23394;SDS011;11870;53.084;18.206;2023-09-08T14:29:23;7.38;;;5.45;;
23394;SDS011;11870;53.084;18.206;2023-09-08T14:31:50;6.97;;;5.38;;
23394;SDS011;11870;53.084;18.206;2023-09-08T14:34:15;7.10;;;5.38;;
23394;SDS011;11870;53.084;18.206;2023-09-08T14:36:43;6.13;;;5.22;;
23394;SDS011;11870;53.084;18.206;2023-09-08T14:39:09;7.28;;;5.50;;
23394;SDS011;11870;53.084;18.206;2023-09-08T14:41:35;5.28;;;4.78;;